createdAt,value
2022-10-11T00:02:19.039Z,5.90
2022-10-11T00:04:50.493Z,4.57
2022-10-11T00:07:18.613Z,5.38
2022-10-11T00:09:46.888Z,5.38
2022-10-11T00:12:14.754Z,5.57
2022-10-11T00:14:42.607Z,5.80
2022-10-11T00:17:10.469Z,5.38
2022-10-11T00:19:38.336Z,4.75
2022-10-11T00:22:07.598Z,5.57
2022-10-11T00:24:35.498Z,4.88
2022-10-11T00:27:03.363Z,4.45
2022-10-11T00:29:31.242Z,5.22
2022-10-11T00:31:59.168Z,5.32
2022-10-11T00:34:27.249Z,5.45
2022-10-11T00:36:55.138Z,5.45
2022-10-11T00:39:24.330Z,5.47
2022-10-11T00:41:52.202Z,5.45
2022-10-11T00:44:24.588Z,5.90
2022-10-11T00:46:56.089Z,5.68
2022-10-11T00:49:31.397Z,5.03
2022-10-11T00:52:04.419Z,5.63
2022-10-11T00:54:37.182Z,5.82
2022-10-11T00:57:08.825Z,6.63
2022-10-11T00:59:40.861Z,5.18
2022-10-11T01:02:11.018Z,5.85
2022-10-11T01:04:38.891Z,5.43
2022-10-11T01:07:06.893Z,5.50
2022-10-11T01:09:36.546Z,5.75
2022-10-11T01:12:08.137Z,5.75
2022-10-11T01:14:46.008Z,7.40
2022-10-11T01:17:23.061Z,5.40
2022-10-11T01:20:14.474Z,5.80
2022-10-11T01:23:08.953Z,5.93
2022-10-11T01:25:49.872Z,6.22
2022-10-11T01:28:35.627Z,5.57
2022-10-11T01:31:12.959Z,4.82
2022-10-11T01:33:45.922Z,6.57
2022-10-11T01:36:20.070Z,5.45
2022-10-11T01:38:52.468Z,4.97
2022-10-11T01:41:24.550Z,5.13
2022-10-11T01:43:58.635Z,5.30
2022-10-11T01:46:30.411Z,6.05
2022-10-11T01:49:00.726Z,5.53
2022-10-11T01:51:32.608Z,6.15
2022-10-11T01:54:23.902Z,6.00
2022-10-11T01:57:15.510Z,5.40
2022-10-11T01:59:55.192Z,5.30
2022-10-11T02:02:38.783Z,6.22
2022-10-11T02:05:13.501Z,5.47
2022-10-11T02:07:45.409Z,5.55
2022-10-11T02:10:20.142Z,5.90
2022-10-11T02:12:52.237Z,5.88
2022-10-11T02:15:22.147Z,6.50
2022-10-11T02:17:55.448Z,5.32
2022-10-11T02:20:26.110Z,7.05
2022-10-11T02:22:58.881Z,6.55
2022-10-11T02:25:29.756Z,6.60
2022-10-11T02:28:02.103Z,6.10
2022-10-11T02:30:31.562Z,7.25
2022-10-11T02:33:04.816Z,6.93
2022-10-11T02:35:40.009Z,7.30
2022-10-11T02:38:15.337Z,6.78
2022-10-11T02:40:48.640Z,6.25
2022-10-11T02:43:23.969Z,6.32
2022-10-11T02:45:55.760Z,7.25
2022-10-11T02:48:27.479Z,7.47
2022-10-11T02:50:56.505Z,8.70
2022-10-11T02:53:27.578Z,7.78
2022-10-11T02:55:56.475Z,8.35
2022-10-11T02:58:25.304Z,9.07
2022-10-11T03:00:53.266Z,9.73
2022-10-11T03:03:21.135Z,9.15
2022-10-11T03:05:50.389Z,9.63
2022-10-11T03:08:19.019Z,10.02
2022-10-11T03:10:46.876Z,9.75
2022-10-11T03:13:18.085Z,10.77
2022-10-11T03:16:00.711Z,9.57
2022-10-11T03:18:31.137Z,11.30
2022-10-11T03:21:00.397Z,13.82
2022-10-11T03:23:28.363Z,15.07
2022-10-11T03:25:56.240Z,18.02
2022-10-11T03:28:24.127Z,17.45
2022-10-11T03:30:52.812Z,19.52
2022-10-11T03:33:21.209Z,20.95
2022-10-11T03:35:50.303Z,22.77
2022-10-11T03:38:22.228Z,25.85
2022-10-11T03:40:50.205Z,22.67
2022-10-11T03:43:18.300Z,24.23
2022-10-11T03:45:46.152Z,25.45
2022-10-11T03:48:14.163Z,25.10
2022-10-11T03:50:42.063Z,26.50
2022-10-11T03:53:10.608Z,25.42
2022-10-11T03:55:41.036Z,23.95
2022-10-11T03:58:09.251Z,25.17
2022-10-11T04:00:37.244Z,26.42
2022-10-11T04:03:05.305Z,25.77
2022-10-11T04:05:33.247Z,25.45
2022-10-11T04:08:01.254Z,24.52
2022-10-11T04:10:30.981Z,24.33
2022-10-11T04:13:00.285Z,26.25
2022-10-11T04:15:28.200Z,25.60
2022-10-11T04:17:56.131Z,26.08
2022-10-11T04:20:24.237Z,24.95
2022-10-11T04:22:52.213Z,25.73
2022-10-11T04:25:20.208Z,24.42
2022-10-11T04:27:48.582Z,25.98
2022-10-11T04:30:18.336Z,23.20
2022-10-11T04:32:46.312Z,25.30
2022-10-11T04:35:14.277Z,23.65
2022-10-11T04:37:42.166Z,24.05
2022-10-11T04:40:12.695Z,25.73
2022-10-11T04:42:40.679Z,24.58
2022-10-11T04:45:09.859Z,24.67
2022-10-11T04:47:40.422Z,23.45
2022-10-11T04:50:08.712Z,26.55
2022-10-11T04:52:36.578Z,24.00
2022-10-11T04:55:04.758Z,26.27
2022-10-11T04:57:32.825Z,25.55
2022-10-11T05:00:00.707Z,23.70
2022-10-11T05:02:28.614Z,25.35
2022-10-11T05:04:57.835Z,25.75
2022-10-11T05:07:25.736Z,24.95
2022-10-11T05:09:53.596Z,26.50
2022-10-11T05:12:21.478Z,26.58
2022-10-11T05:14:49.303Z,27.17
2022-10-11T05:17:17.189Z,26.45
2022-10-11T05:19:45.062Z,26.55
2022-10-11T05:22:14.247Z,24.80
2022-10-11T05:24:42.116Z,26.80
2022-10-11T05:27:10.029Z,25.38
2022-10-11T05:29:37.987Z,28.17
2022-10-11T05:32:06.319Z,27.25
2022-10-11T05:34:34.263Z,25.63
2022-10-11T05:37:02.194Z,27.60
2022-10-11T05:39:32.313Z,26.75
2022-10-11T05:42:00.257Z,28.08
2022-10-11T05:44:28.297Z,25.10
2022-10-11T05:46:56.208Z,26.15
2022-10-11T05:49:24.180Z,28.20
2022-10-11T05:51:52.151Z,25.02
2022-10-11T05:54:20.072Z,24.48
2022-10-11T05:56:49.407Z,25.17
2022-10-11T05:59:17.296Z,25.40
2022-10-11T06:01:45.228Z,25.45
2022-10-11T06:04:13.193Z,25.80
2022-10-11T06:06:41.138Z,26.73
2022-10-11T06:09:09.152Z,27.45
2022-10-11T06:11:37.200Z,25.42
2022-10-11T06:14:06.522Z,23.85
2022-10-11T06:16:34.433Z,25.27
2022-10-11T06:19:02.418Z,28.83
2022-10-11T06:21:30.365Z,24.80
2022-10-11T06:24:01.668Z,26.65
2022-10-11T06:26:29.863Z,25.90
2022-10-11T06:28:58.596Z,27.20
2022-10-11T06:31:28.067Z,26.75
2022-10-11T06:33:56.000Z,27.85
2022-10-11T06:36:24.004Z,25.90
2022-10-11T06:38:52.853Z,27.67
2022-10-11T06:41:23.385Z,25.58
2022-10-11T06:43:51.652Z,26.48
2022-10-11T06:46:20.307Z,24.60
2022-10-11T06:48:50.319Z,26.67
2022-10-11T06:51:20.467Z,24.88
2022-10-11T06:53:51.657Z,26.70
2022-10-11T06:56:20.165Z,24.83
2022-10-11T06:58:48.284Z,23.88
2022-10-11T07:01:19.099Z,25.52
2022-10-11T07:03:47.384Z,24.58
2022-10-11T07:06:18.889Z,22.88
2022-10-11T07:08:47.389Z,22.80
2022-10-11T07:11:17.655Z,23.83
2022-10-11T07:13:50.329Z,23.33
2022-10-11T07:16:18.880Z,26.00
2022-10-11T07:18:47.633Z,22.92
2022-10-11T07:21:17.472Z,24.10
2022-10-11T07:23:45.444Z,24.55
2022-10-11T07:26:13.693Z,24.35
2022-10-11T07:28:42.227Z,23.92
2022-10-11T07:31:12.204Z,25.50
2022-10-11T07:33:40.185Z,23.88
2022-10-11T07:36:09.308Z,24.45
2022-10-11T07:38:41.099Z,23.08
2022-10-11T07:41:09.642Z,24.58
2022-10-11T07:43:38.075Z,22.75
2022-10-11T07:46:07.269Z,23.80
2022-10-11T07:48:36.907Z,23.20
2022-10-11T07:51:06.698Z,21.42
2022-10-11T07:53:41.123Z,21.60
2022-10-11T07:56:10.043Z,20.48
2022-10-11T07:58:37.955Z,23.15
2022-10-11T08:01:06.064Z,20.48
2022-10-11T08:03:34.514Z,21.13
2022-10-11T08:06:03.633Z,21.27
2022-10-11T08:08:32.079Z,22.48
2022-10-11T08:11:01.681Z,19.85
2022-10-11T08:13:29.798Z,21.15
2022-10-11T08:15:58.206Z,22.65
2022-10-11T08:18:26.468Z,21.20
2022-10-11T08:20:54.482Z,22.65
2022-10-11T08:23:22.429Z,22.38
2022-10-11T08:25:50.351Z,22.27
2022-10-11T08:28:20.893Z,20.70
2022-10-11T08:30:49.915Z,21.17
2022-10-11T08:33:18.269Z,21.45
2022-10-11T08:35:46.225Z,20.30
2022-10-11T08:38:14.850Z,21.17
2022-10-11T08:40:48.009Z,21.67
2022-10-11T08:43:29.217Z,20.67
2022-10-11T08:46:01.046Z,22.90
2022-10-11T08:48:35.487Z,21.15
2022-10-11T08:51:09.654Z,22.88
2022-10-11T08:53:45.980Z,21.95
2022-10-11T08:56:15.822Z,22.48
2022-10-11T08:58:49.085Z,22.00
2022-10-11T09:01:21.715Z,21.13
2022-10-11T09:03:50.832Z,21.33
2022-10-11T09:06:36.948Z,21.77
2022-10-11T09:09:29.875Z,19.35
2022-10-11T09:12:11.168Z,20.05
2022-10-11T09:15:04.416Z,22.05
2022-10-11T09:17:52.172Z,20.65
2022-10-11T09:20:31.735Z,22.05
2022-10-11T09:23:04.886Z,24.60
2022-10-11T09:25:36.029Z,22.95
2022-10-11T09:28:17.405Z,22.77
2022-10-11T09:30:50.799Z,23.50
2022-10-11T09:33:21.005Z,22.83
2022-10-11T09:35:51.188Z,22.05
2022-10-11T09:38:28.994Z,21.90
2022-10-11T09:41:06.992Z,20.45
2022-10-11T09:43:35.190Z,22.73
2022-10-11T09:46:04.826Z,22.60
2022-10-11T09:48:41.198Z,23.92
2022-10-11T09:51:17.977Z,21.85
2022-10-11T09:53:54.651Z,22.50
2022-10-11T09:56:23.596Z,20.65
2022-10-11T09:59:08.421Z,20.58
2022-10-11T10:01:38.195Z,20.42
2022-10-11T10:04:10.010Z,20.77
2022-10-11T10:06:38.908Z,23.30
2022-10-11T10:09:31.369Z,22.65
2022-10-11T10:11:59.431Z,20.88
2022-10-11T10:14:30.050Z,19.17
2022-10-11T10:17:05.067Z,21.02
2022-10-11T10:19:44.968Z,20.20
2022-10-11T10:22:20.020Z,22.40
2022-10-11T10:24:49.998Z,22.48
2022-10-11T10:27:21.987Z,22.10
2022-10-11T10:30:17.084Z,22.83
2022-10-11T10:32:55.226Z,23.33
2022-10-11T10:38:09.005Z,23.25
2022-10-11T10:40:43.937Z,25.35
2022-10-11T10:43:17.343Z,24.58
2022-10-11T10:46:16.629Z,22.30
2022-10-11T10:51:52.703Z,23.95
2022-10-11T10:54:36.494Z,24.35
2022-10-11T10:57:12.102Z,20.23
2022-10-11T11:00:03.365Z,21.48
2022-10-11T11:02:41.487Z,21.52
2022-10-11T11:05:22.148Z,20.90
2022-10-11T11:07:55.416Z,23.83
2022-10-11T11:10:27.203Z,23.85
2022-10-11T11:13:08.978Z,23.33
2022-10-11T11:15:40.867Z,21.88
2022-10-11T11:18:25.813Z,20.88
2022-10-11T11:21:08.969Z,21.30
2022-10-11T11:23:43.651Z,21.85
2022-10-11T11:26:17.628Z,23.65
2022-10-11T11:28:58.922Z,19.98
2022-10-11T11:31:50.266Z,20.48
2022-10-11T11:34:22.927Z,18.92
2022-10-11T11:36:57.506Z,18.10
2022-10-11T11:39:29.333Z,17.77
2022-10-11T11:42:02.149Z,17.27
2022-10-11T11:44:33.939Z,18.27
2022-10-11T11:47:04.245Z,17.23
2022-10-11T11:49:36.822Z,17.85
2022-10-11T11:52:08.600Z,18.73
2022-10-11T11:54:45.522Z,17.75
2022-10-11T11:57:24.259Z,16.23
2022-10-11T11:59:58.516Z,16.27
2022-10-11T12:02:44.910Z,17.20
2022-10-11T12:05:15.825Z,16.33
2022-10-11T12:08:07.306Z,18.45
2022-10-11T12:10:38.494Z,14.93
2022-10-11T12:13:31.985Z,16.50
2022-10-11T12:16:09.692Z,17.55
2022-10-11T12:18:49.353Z,18.42
2022-10-11T12:21:23.111Z,17.85
2022-10-11T12:23:54.232Z,15.43
2022-10-11T12:26:42.115Z,17.95
2022-10-11T12:29:29.136Z,15.67
2022-10-11T12:32:51.905Z,15.30
2022-10-11T12:35:56.961Z,14.73
2022-10-11T12:38:26.341Z,15.90
2022-10-11T12:40:57.084Z,15.20
2022-10-11T12:43:29.791Z,16.10
2022-10-11T12:45:57.918Z,15.80
2022-10-11T12:48:52.782Z,15.18
2022-10-11T12:51:34.133Z,13.30
2022-10-11T12:54:36.183Z,14.55
2022-10-11T12:57:46.995Z,13.82
2022-10-11T13:00:21.691Z,14.20
2022-10-11T13:02:50.681Z,13.15
2022-10-11T13:05:24.140Z,13.25
2022-10-11T13:07:53.112Z,13.38
2022-10-11T13:10:25.976Z,15.73
2022-10-11T13:12:59.622Z,15.70
2022-10-11T13:15:28.265Z,15.88
2022-10-11T13:18:00.887Z,15.75
2022-10-11T13:20:31.550Z,15.68
2022-10-11T13:22:59.882Z,16.50
2022-10-11T13:25:30.172Z,14.77
2022-10-11T13:28:00.271Z,16.83
2022-10-11T13:30:31.423Z,16.55
2022-10-11T13:33:00.894Z,15.70
2022-10-11T13:35:32.659Z,15.73
2022-10-11T13:38:01.271Z,15.52
2022-10-11T13:40:30.427Z,14.25
2022-10-11T13:43:00.734Z,15.40
2022-10-11T13:45:30.620Z,13.20
2022-10-11T13:47:59.051Z,13.27
2022-10-11T13:50:32.281Z,13.68
2022-10-11T13:53:03.017Z,13.05
2022-10-11T13:55:34.553Z,12.48
2022-10-11T13:58:11.226Z,12.30
2022-10-11T14:00:41.269Z,11.98
2022-10-11T14:03:20.000Z,11.32
2022-10-11T14:05:55.696Z,10.95
2022-10-11T14:08:36.487Z,10.32
2022-10-11T14:11:06.499Z,10.95
2022-10-11T14:13:39.518Z,11.30
2022-10-11T14:16:10.154Z,9.63
2022-10-11T14:18:47.536Z,10.77
2022-10-11T14:21:33.282Z,12.70
2022-10-11T14:24:04.919Z,11.57
2022-10-11T14:26:35.428Z,10.60
2022-10-11T14:29:08.566Z,11.60
2022-10-11T14:31:41.326Z,11.65
2022-10-11T14:34:15.939Z,12.35
2022-10-11T14:36:43.893Z,10.75
2022-10-11T14:39:16.205Z,11.52
2022-10-11T14:41:44.236Z,12.10
2022-10-11T14:44:14.168Z,11.45
2022-10-11T14:46:42.700Z,12.35
2022-10-11T14:49:14.873Z,12.68
2022-10-11T14:51:43.689Z,13.43
2022-10-11T14:54:12.174Z,13.95
2022-10-11T14:56:40.463Z,13.48
2022-10-11T14:59:08.598Z,14.43
2022-10-11T15:01:38.007Z,12.13
2022-10-11T15:04:06.130Z,12.77
2022-10-11T15:06:37.745Z,12.80
2022-10-11T15:09:06.712Z,12.75
2022-10-11T15:11:34.833Z,14.07
2022-10-11T15:14:02.946Z,12.70
2022-10-11T15:16:31.087Z,11.82
2022-10-11T15:19:00.427Z,13.85
2022-10-11T15:21:30.343Z,11.40
2022-10-11T15:23:58.312Z,12.20
2022-10-11T15:26:29.023Z,11.52
2022-10-11T15:28:57.984Z,12.27
2022-10-11T15:31:26.038Z,12.20
2022-10-11T15:33:53.926Z,12.30
2022-10-11T15:36:23.923Z,13.02
2022-10-11T15:38:52.068Z,11.88
2022-10-11T15:41:21.175Z,13.15
2022-10-11T15:43:50.482Z,11.82
2022-10-11T15:46:20.586Z,12.65
2022-10-11T15:48:49.006Z,12.50
2022-10-11T15:51:17.523Z,12.80
2022-10-11T15:53:47.291Z,11.45
2022-10-11T15:56:18.719Z,12.98
2022-10-11T15:58:47.335Z,11.25
2022-10-11T16:01:17.268Z,13.18
2022-10-11T16:03:46.166Z,14.43
2022-10-11T16:06:14.131Z,13.00
2022-10-11T16:08:42.191Z,14.63
2022-10-11T16:11:13.223Z,14.15
2022-10-11T16:13:41.357Z,12.90
2022-10-11T16:16:10.605Z,14.18
2022-10-11T16:18:39.075Z,15.75
2022-10-11T16:21:09.504Z,14.73
2022-10-11T16:23:38.177Z,16.75
2022-10-11T16:26:09.401Z,15.48
2022-10-11T16:28:39.366Z,15.32
2022-10-11T16:31:08.267Z,16.85
2022-10-11T16:33:45.346Z,17.08
2022-10-11T16:36:32.724Z,16.43
2022-10-11T16:39:01.574Z,16.40
2022-10-11T16:41:29.753Z,16.17
2022-10-11T16:43:59.052Z,18.25
2022-10-11T16:46:27.065Z,17.33
2022-10-11T16:48:56.351Z,17.08
2022-10-11T16:51:25.291Z,17.48
2022-10-11T16:53:54.036Z,17.20
2022-10-11T16:56:24.959Z,17.95
2022-10-11T16:58:54.310Z,15.65
2022-10-11T17:01:23.690Z,17.35
2022-10-11T17:03:52.316Z,16.80
2022-10-11T17:06:20.957Z,18.15
2022-10-11T17:08:48.917Z,16.80
2022-10-11T17:11:17.741Z,18.40
2022-10-11T17:13:46.317Z,18.58
2022-10-11T17:16:14.523Z,18.83
2022-10-11T17:18:43.818Z,19.75
2022-10-11T17:21:14.241Z,18.88
2022-10-11T17:23:42.230Z,20.92
2022-10-11T17:26:13.677Z,18.08
2022-10-11T17:28:41.972Z,19.52
2022-10-11T17:31:10.321Z,18.92
2022-10-11T17:33:38.522Z,19.80
2022-10-11T17:36:17.109Z,19.63
2022-10-11T17:38:45.433Z,22.58
2022-10-11T17:41:13.540Z,19.30
2022-10-11T17:43:41.841Z,18.92
2022-10-11T17:46:11.927Z,19.80
2022-10-11T17:48:40.332Z,18.92
2022-10-11T17:51:09.695Z,18.25
2022-10-11T17:53:39.459Z,17.50
2022-10-11T17:56:09.174Z,19.02
2022-10-11T17:58:37.552Z,19.48
2022-10-11T18:01:07.886Z,18.15
2022-10-11T18:03:36.022Z,17.42
2022-10-11T18:06:05.561Z,18.02
2022-10-11T18:08:39.960Z,18.15
2022-10-11T18:11:13.256Z,19.83
2022-10-11T18:13:45.761Z,20.17
2022-10-11T18:16:13.902Z,19.02
2022-10-11T18:18:42.860Z,18.60
2022-10-11T18:21:12.967Z,19.10
2022-10-11T18:23:41.221Z,18.65
2022-10-11T18:26:12.295Z,18.67
2022-10-11T18:28:41.471Z,20.80
2022-10-11T18:31:13.505Z,20.05
2022-10-11T18:33:42.799Z,20.88
2022-10-11T18:36:13.422Z,19.83
2022-10-11T18:38:46.020Z,20.33
2022-10-11T18:41:17.975Z,19.85
2022-10-11T18:43:50.031Z,20.00
2022-10-11T18:46:18.435Z,18.25
2022-10-11T18:48:48.888Z,18.90
2022-10-11T18:51:19.352Z,18.48
2022-10-11T18:53:48.133Z,15.05
2022-10-11T18:56:20.634Z,18.83
2022-10-11T18:58:50.175Z,18.73
2022-10-11T19:01:20.598Z,16.25
2022-10-11T19:03:52.370Z,17.23
2022-10-11T19:06:22.050Z,16.23
2022-10-11T19:08:52.139Z,18.40
2022-10-11T19:11:22.761Z,18.80
2022-10-11T19:13:56.417Z,19.08
2022-10-11T19:16:24.606Z,17.35
2022-10-11T19:18:53.614Z,20.08
2022-10-11T19:21:22.050Z,18.17
2022-10-11T19:23:50.919Z,18.45
2022-10-11T19:26:22.656Z,18.48
2022-10-11T19:28:56.544Z,18.55
2022-10-11T19:31:24.947Z,19.42
2022-10-11T19:33:53.272Z,19.08
2022-10-11T19:36:21.586Z,18.60
2022-10-11T19:38:51.197Z,16.88
2022-10-11T19:41:21.470Z,18.98
2022-10-11T19:43:49.447Z,17.98
2022-10-11T19:46:37.837Z,19.33
2022-10-11T19:49:08.733Z,17.88
2022-10-11T19:51:38.108Z,18.70
2022-10-11T19:54:07.984Z,21.35
2022-10-11T19:56:37.658Z,20.13
2022-10-11T19:59:07.291Z,19.67
2022-10-11T20:01:36.531Z,20.17
2022-10-11T20:04:07.030Z,20.85
2022-10-11T20:06:38.790Z,19.00
2022-10-11T20:09:27.850Z,21.27
2022-10-11T20:11:56.439Z,21.73
2022-10-11T20:14:24.743Z,19.90
2022-10-11T20:16:52.899Z,18.20
2022-10-11T20:19:24.879Z,21.02
2022-10-11T20:21:55.729Z,20.70
2022-10-11T20:24:23.583Z,21.55
2022-10-11T20:26:51.439Z,19.73
2022-10-11T20:29:20.678Z,19.85
2022-10-11T20:31:48.512Z,20.63
2022-10-11T20:34:16.393Z,19.83
2022-10-11T20:36:48.881Z,20.02
2022-10-11T20:39:17.780Z,21.70
2022-10-11T20:41:46.113Z,20.70
2022-10-11T20:44:16.008Z,20.08
2022-10-11T20:46:45.287Z,21.75
2022-10-11T20:49:13.437Z,21.63
2022-10-11T20:51:42.600Z,20.73
2022-10-11T20:54:11.448Z,20.27
2022-10-11T20:56:39.849Z,22.15
2022-10-11T20:59:08.345Z,22.35
2022-10-11T21:01:38.069Z,20.48
2022-10-11T21:04:09.213Z,22.17
2022-10-11T21:06:37.080Z,20.27
2022-10-11T21:09:05.095Z,23.13
2022-10-11T21:11:35.031Z,21.27
2022-10-11T21:14:04.631Z,21.65
2022-10-11T21:16:33.399Z,23.02
2022-10-11T21:19:02.879Z,22.50
2022-10-11T21:21:32.264Z,22.50
2022-10-11T21:24:02.093Z,22.40
2022-10-11T21:26:31.027Z,22.85
2022-10-11T21:29:00.142Z,24.90
2022-10-11T21:31:33.576Z,21.95
2022-10-11T21:34:02.249Z,22.75
2022-10-11T21:36:30.193Z,22.35
2022-10-11T21:38:59.414Z,23.08
2022-10-11T21:41:29.814Z,23.85
2022-10-11T21:43:58.459Z,24.75
2022-10-11T21:46:47.476Z,22.95
2022-10-11T21:49:16.250Z,23.52
2022-10-11T21:51:44.170Z,22.88
2022-10-11T21:54:13.426Z,22.02
2022-10-11T21:56:41.590Z,22.35
2022-10-11T21:59:12.173Z,24.13
2022-10-11T22:01:41.102Z,23.63
2022-10-11T22:04:10.861Z,25.30
2022-10-11T22:06:39.668Z,23.75
2022-10-11T22:09:09.122Z,24.38
2022-10-11T22:11:38.935Z,23.55
2022-10-11T22:14:07.457Z,23.15
2022-10-11T22:16:35.702Z,24.02
2022-10-11T22:19:03.763Z,25.23
2022-10-11T22:21:31.728Z,23.35
2022-10-11T22:23:59.747Z,23.50
2022-10-11T22:26:30.489Z,24.48
2022-10-11T22:29:00.308Z,23.95
2022-10-11T22:31:28.797Z,24.02
2022-10-11T22:33:57.189Z,23.52
2022-10-11T22:36:25.381Z,25.25
2022-10-11T22:38:54.045Z,24.75
2022-10-11T22:41:22.144Z,23.38
2022-10-11T22:43:50.294Z,24.70
2022-10-11T22:46:19.675Z,23.95
2022-10-11T22:48:47.538Z,25.25
2022-10-11T22:51:15.459Z,25.05
2022-10-11T22:53:43.339Z,24.42
2022-10-11T22:56:11.567Z,25.60
2022-10-11T22:58:39.470Z,25.58
2022-10-11T23:01:08.818Z,26.00
2022-10-11T23:03:38.502Z,25.60
2022-10-11T23:06:06.919Z,26.88
2022-10-11T23:08:34.778Z,25.88
2022-10-11T23:11:06.841Z,25.33
2022-10-11T23:13:35.199Z,24.90
2022-10-11T23:16:07.456Z,26.52
2022-10-11T23:18:36.796Z,27.55
2022-10-11T23:21:05.846Z,25.60
2022-10-11T23:23:33.987Z,24.60
2022-10-11T23:26:07.309Z,25.67
2022-10-11T23:28:35.534Z,26.70
2022-10-11T23:31:08.787Z,27.05
2022-10-11T23:33:38.501Z,26.25
2022-10-11T23:36:07.518Z,25.88
2022-10-11T23:38:35.406Z,25.58
2022-10-11T23:41:03.280Z,26.48
2022-10-11T23:43:31.203Z,25.38
2022-10-11T23:45:59.198Z,25.38
2022-10-11T23:48:27.032Z,25.75
2022-10-11T23:50:56.225Z,25.50
2022-10-11T23:53:24.098Z,24.70
2022-10-11T23:55:52.073Z,24.75
2022-10-11T23:58:20.037Z,26.02
